createdAt,value
2019-02-22T00:00:18.597Z,0.00
2019-02-22T00:01:18.772Z,0.00
2019-02-22T00:02:18.948Z,0.00
2019-02-22T00:03:19.127Z,0.00
2019-02-22T00:04:19.302Z,0.00
2019-02-22T00:05:19.477Z,0.00
2019-02-22T00:06:19.656Z,0.00
2019-02-22T00:07:19.833Z,0.00
2019-02-22T00:08:20.035Z,0.00
2019-02-22T00:09:20.199Z,0.00
2019-02-22T00:10:20.367Z,0.00
2019-02-22T00:11:20.536Z,0.00
2019-02-22T00:12:20.721Z,0.00
2019-02-22T00:13:20.909Z,0.00
2019-02-22T00:14:21.067Z,0.00
2019-02-22T00:15:21.242Z,0.00
2019-02-22T00:16:21.418Z,0.00
2019-02-22T00:17:21.598Z,0.00
2019-02-22T00:18:21.771Z,0.00
2019-02-22T00:19:21.945Z,0.00
2019-02-22T00:20:22.122Z,0.00
2019-02-22T00:21:22.296Z,0.00
2019-02-22T00:22:22.477Z,0.00
2019-02-22T00:23:22.648Z,0.00
2019-02-22T00:24:22.827Z,0.00
2019-02-22T00:25:23.018Z,0.00
2019-02-22T00:26:23.176Z,0.00
2019-02-22T00:27:23.366Z,0.00
2019-02-22T00:28:23.527Z,0.00
2019-02-22T00:29:23.705Z,0.00
2019-02-22T00:30:23.880Z,0.00
2019-02-22T00:31:24.068Z,0.00
2019-02-22T00:32:24.237Z,0.00
2019-02-22T00:33:24.415Z,0.00
2019-02-22T00:34:24.625Z,0.00
2019-02-22T00:35:24.763Z,0.00
2019-02-22T00:36:24.977Z,0.00
2019-02-22T00:37:25.145Z,0.00
2019-02-22T00:38:27.145Z,0.00
2019-02-22T00:39:25.469Z,0.00
2019-02-22T00:40:25.643Z,0.00
2019-02-22T00:41:25.818Z,0.00
2019-02-22T00:42:25.995Z,0.00
2019-02-22T00:43:26.170Z,0.00
2019-02-22T00:44:26.347Z,0.00
2019-02-22T00:45:26.526Z,0.00
2019-02-22T00:46:26.697Z,0.00
2019-02-22T00:47:26.872Z,0.00
2019-02-22T00:48:27.052Z,0.00
2019-02-22T00:49:27.320Z,0.00
2019-02-22T00:50:27.398Z,0.00
2019-02-22T00:51:27.574Z,0.00
2019-02-22T00:52:27.749Z,0.00
2019-02-22T00:53:27.936Z,0.00
2019-02-22T00:54:28.110Z,0.00
2019-02-22T00:55:28.279Z,0.00
2019-02-22T00:56:28.459Z,0.00
2019-02-22T00:57:28.656Z,0.00
2019-02-22T00:58:28.816Z,0.00
2019-02-22T00:59:28.981Z,0.00
2019-02-22T01:00:29.155Z,0.00
2019-02-22T01:01:29.331Z,0.00
2019-02-22T01:02:29.507Z,0.00
2019-02-22T01:03:29.689Z,0.00
2019-02-22T01:04:29.859Z,0.00
2019-02-22T01:06:30.200Z,0.00
2019-02-22T01:07:30.377Z,0.00
2019-02-22T01:08:30.551Z,0.00
2019-02-22T01:09:30.727Z,0.00
2019-02-22T01:10:31.625Z,0.00
2019-02-22T01:11:31.078Z,0.00
2019-02-22T01:12:31.255Z,0.00
2019-02-22T01:13:31.432Z,0.00
2019-02-22T01:14:31.618Z,0.00
2019-02-22T01:15:31.783Z,0.00
2019-02-22T01:16:31.959Z,0.00
2019-02-22T01:17:32.135Z,0.00
2019-02-22T01:18:32.315Z,0.00
2019-02-22T01:19:32.489Z,0.00
2019-02-22T01:20:32.669Z,0.00
2019-02-22T01:21:32.840Z,0.00
2019-02-22T01:22:33.019Z,0.00
2019-02-22T01:23:33.190Z,0.00
2019-02-22T01:24:33.366Z,0.00
2019-02-22T01:25:33.555Z,0.00
2019-02-22T01:26:33.721Z,0.00
2019-02-22T01:27:33.888Z,0.00
2019-02-22T01:28:34.063Z,0.00
2019-02-22T01:29:34.242Z,0.00
2019-02-22T01:30:34.419Z,0.00
2019-02-22T01:31:34.593Z,0.00
2019-02-22T01:32:34.766Z,0.00
2019-02-22T01:33:34.946Z,0.00
2019-02-22T01:34:35.120Z,0.00
2019-02-22T01:35:35.295Z,0.00
2019-02-22T01:36:35.521Z,0.00
2019-02-22T01:37:35.656Z,0.00
2019-02-22T01:38:35.823Z,0.00
2019-02-22T01:39:35.998Z,0.00
2019-02-22T01:40:43.791Z,0.00
2019-02-22T01:41:36.355Z,0.00
2019-02-22T01:42:36.524Z,0.00
2019-02-22T01:43:36.702Z,0.00
2019-02-22T01:44:36.878Z,0.00
2019-02-22T01:45:37.055Z,0.00
2019-02-22T01:46:37.239Z,0.00
2019-02-22T01:47:37.415Z,0.00
2019-02-22T01:48:37.585Z,0.00
2019-02-22T01:49:37.758Z,0.00
2019-02-22T01:50:37.994Z,0.00
2019-02-22T01:51:38.114Z,0.00
2019-02-22T01:52:38.286Z,0.00
2019-02-22T01:53:38.463Z,0.00
2019-02-22T01:54:38.640Z,0.00
2019-02-22T01:55:38.816Z,0.00
2019-02-22T01:56:38.991Z,0.00
2019-02-22T01:57:39.170Z,0.00
2019-02-22T01:58:48.342Z,0.00
2019-02-22T01:59:39.522Z,0.00
2019-02-22T02:00:39.693Z,0.00
2019-02-22T02:01:39.870Z,0.00
2019-02-22T02:02:40.051Z,0.00
2019-02-22T02:03:40.226Z,0.00
2019-02-22T02:04:40.411Z,0.00
2019-02-22T02:05:40.574Z,0.00
2019-02-22T02:06:40.750Z,0.00
2019-02-22T02:07:40.927Z,0.00
2019-02-22T02:08:41.100Z,0.00
2019-02-22T02:09:41.279Z,0.00
2019-02-22T02:10:41.457Z,0.00
2019-02-22T02:11:41.631Z,0.00
2019-02-22T02:12:41.809Z,0.00
2019-02-22T02:13:41.988Z,0.00
2019-02-22T02:14:42.162Z,0.00
2019-02-22T02:15:42.331Z,0.00
2019-02-22T02:16:42.509Z,0.00
2019-02-22T02:17:42.685Z,0.00
2019-02-22T02:18:42.862Z,0.00
2019-02-22T02:19:43.047Z,0.00
2019-02-22T02:20:43.241Z,0.00
2019-02-22T02:21:43.391Z,0.00
2019-02-22T02:22:43.568Z,0.00
2019-02-22T02:23:43.742Z,0.00
2019-02-22T02:24:43.919Z,0.00
2019-02-22T02:25:44.096Z,0.00
2019-02-22T02:26:44.268Z,0.00
2019-02-22T02:27:44.452Z,0.00
2019-02-22T02:28:44.616Z,0.00
2019-02-22T02:29:44.793Z,0.00
2019-02-22T02:30:44.981Z,0.00
2019-02-22T02:31:45.159Z,0.00
2019-02-22T02:32:45.320Z,0.00
2019-02-22T02:33:45.504Z,0.00
2019-02-22T02:34:45.670Z,0.00
2019-02-22T02:35:45.856Z,0.00
2019-02-22T02:36:46.024Z,0.00
2019-02-22T02:37:46.200Z,0.00
2019-02-22T02:38:46.373Z,0.00
2019-02-22T02:39:46.566Z,0.00
2019-02-22T02:40:46.726Z,0.00
2019-02-22T02:41:46.904Z,0.00
2019-02-22T02:42:47.078Z,0.00
2019-02-22T02:43:47.259Z,0.00
2019-02-22T02:44:47.432Z,0.00
2019-02-22T02:45:47.607Z,0.00
2019-02-22T02:46:47.781Z,0.00
2019-02-22T02:47:47.958Z,0.00
2019-02-22T02:48:48.131Z,0.00
2019-02-22T02:49:48.306Z,0.00
2019-02-22T02:50:48.490Z,0.00
2019-02-22T02:51:48.658Z,0.00
2019-02-22T02:52:48.844Z,0.00
2019-02-22T02:53:49.050Z,0.00
2019-02-22T02:54:49.186Z,0.00
2019-02-22T02:55:49.363Z,0.00
2019-02-22T02:56:49.539Z,0.00
2019-02-22T02:57:49.723Z,0.00
2019-02-22T02:58:49.900Z,0.00
2019-02-22T02:59:50.072Z,0.00
2019-02-22T03:00:50.247Z,0.00
2019-02-22T03:01:50.438Z,0.00
2019-02-22T03:02:50.611Z,0.00
2019-02-22T03:03:50.775Z,0.00
2019-02-22T03:04:50.944Z,0.00
2019-02-22T03:05:51.166Z,0.00
2019-02-22T03:06:51.301Z,0.00
2019-02-22T03:07:51.479Z,0.00
2019-02-22T03:08:51.657Z,0.00
2019-02-22T03:09:51.824Z,0.00
2019-02-22T03:10:52.000Z,0.00
2019-02-22T03:11:52.180Z,0.00
2019-02-22T03:12:52.350Z,0.00
2019-02-22T03:13:52.527Z,0.00
2019-02-22T03:14:52.704Z,0.00
2019-02-22T03:15:52.880Z,0.00
2019-02-22T03:16:53.053Z,0.00
2019-02-22T03:17:53.231Z,0.00
2019-02-22T03:18:53.405Z,0.00
2019-02-22T03:19:53.580Z,0.00
2019-02-22T03:20:53.757Z,0.00
2019-02-22T03:21:53.926Z,0.00
2019-02-22T03:22:54.104Z,0.00
2019-02-22T03:23:54.285Z,0.00
2019-02-22T03:24:54.462Z,0.00
2019-02-22T03:25:54.635Z,0.00
2019-02-22T03:26:54.814Z,0.00
2019-02-22T03:27:55.032Z,0.00
2019-02-22T03:28:55.161Z,0.00
2019-02-22T03:29:55.336Z,0.00
2019-02-22T03:30:55.518Z,0.00
2019-02-22T03:31:55.693Z,0.00
2019-02-22T03:32:55.871Z,0.00
2019-02-22T03:33:56.042Z,0.00
2019-02-22T03:34:56.211Z,0.00
2019-02-22T03:35:56.390Z,0.00
2019-02-22T03:36:56.651Z,0.00
2019-02-22T03:37:56.740Z,0.00
2019-02-22T03:38:56.919Z,0.00
2019-02-22T03:39:57.094Z,0.00
2019-02-22T03:40:57.284Z,0.00
2019-02-22T03:41:57.441Z,0.00
2019-02-22T03:42:57.619Z,0.00
2019-02-22T03:43:57.796Z,0.00
2019-02-22T03:44:57.970Z,0.00
2019-02-22T03:45:58.234Z,0.00
2019-02-22T03:46:58.317Z,0.00
2019-02-22T03:47:58.489Z,0.00
2019-02-22T03:48:58.660Z,0.00
2019-02-22T03:49:58.833Z,0.00
2019-02-22T03:50:59.013Z,0.00
2019-02-22T03:51:59.183Z,0.00
2019-02-22T03:52:59.370Z,0.00
2019-02-22T03:53:59.535Z,0.00
2019-02-22T03:54:59.713Z,0.00
2019-02-22T03:55:59.891Z,0.00
2019-02-22T03:57:00.068Z,0.00
2019-02-22T03:58:00.236Z,0.00
2019-02-22T03:59:00.415Z,0.00
2019-02-22T04:00:00.587Z,0.00
2019-02-22T04:01:00.772Z,0.00
2019-02-22T04:02:00.938Z,0.00
2019-02-22T04:03:01.112Z,0.00
2019-02-22T04:04:01.303Z,0.00
2019-02-22T04:05:01.469Z,0.00
2019-02-22T04:06:01.641Z,0.00
2019-02-22T04:07:01.819Z,0.00
2019-02-22T04:08:02.006Z,0.00
2019-02-22T04:09:02.170Z,0.00
2019-02-22T04:10:02.357Z,0.00
2019-02-22T04:11:02.516Z,0.00
2019-02-22T04:12:02.694Z,0.00
2019-02-22T04:13:02.878Z,0.00
2019-02-22T04:14:03.058Z,0.00
2019-02-22T04:15:03.215Z,0.00
2019-02-22T04:16:03.396Z,0.00
2019-02-22T04:17:03.564Z,0.00
2019-02-22T04:18:03.737Z,0.00
2019-02-22T04:19:03.927Z,0.00
2019-02-22T04:20:04.097Z,0.00
2019-02-22T04:21:04.265Z,0.00
2019-02-22T04:22:04.442Z,0.00
2019-02-22T04:23:04.629Z,0.00
2019-02-22T04:24:04.801Z,0.00
2019-02-22T04:25:04.966Z,0.00
2019-02-22T04:26:05.137Z,0.00
2019-02-22T04:27:05.311Z,0.00
2019-02-22T04:28:05.491Z,0.00
2019-02-22T04:29:09.122Z,0.00
2019-02-22T04:30:05.806Z,0.00
2019-02-22T04:31:05.980Z,0.00
2019-02-22T04:32:06.163Z,0.00
2019-02-22T04:33:06.330Z,0.00
2019-02-22T04:34:06.513Z,0.00
2019-02-22T04:35:06.681Z,0.00
2019-02-22T04:36:06.851Z,0.00
2019-02-22T04:37:07.029Z,0.00
2019-02-22T04:38:07.201Z,0.00
2019-02-22T04:39:07.377Z,0.00
2019-02-22T04:40:07.565Z,0.00
2019-02-22T04:41:07.735Z,0.00
2019-02-22T04:42:07.906Z,0.00
2019-02-22T04:43:08.082Z,0.00
2019-02-22T04:44:08.261Z,0.00
2019-02-22T04:45:08.436Z,0.00
2019-02-22T04:46:08.609Z,0.00
2019-02-22T04:47:08.790Z,0.00
2019-02-22T04:48:08.960Z,0.00
2019-02-22T04:49:09.148Z,0.00
2019-02-22T04:50:09.306Z,0.00
2019-02-22T04:51:09.483Z,0.00
2019-02-22T04:52:09.657Z,0.00
2019-02-22T04:53:09.831Z,0.00
2019-02-22T04:54:10.045Z,0.00
2019-02-22T04:55:10.183Z,0.00
2019-02-22T04:56:10.359Z,0.00
2019-02-22T04:57:10.533Z,0.00
2019-02-22T04:58:10.707Z,0.00
2019-02-22T04:59:10.883Z,0.00
2019-02-22T05:00:11.057Z,0.00
2019-02-22T05:01:11.226Z,0.00
2019-02-22T05:02:11.401Z,0.00
2019-02-22T05:03:11.577Z,0.00
2019-02-22T05:04:11.749Z,0.00
2019-02-22T05:05:11.923Z,0.00
2019-02-22T05:06:12.099Z,0.00
2019-02-22T05:07:12.273Z,0.00
2019-02-22T05:08:12.446Z,0.00
2019-02-22T05:09:12.743Z,0.00
2019-02-22T05:10:12.808Z,0.00
2019-02-22T05:11:12.982Z,0.00
2019-02-22T05:12:13.148Z,0.00
2019-02-22T05:13:13.334Z,0.00
2019-02-22T05:14:13.510Z,0.00
2019-02-22T05:15:13.678Z,0.00
2019-02-22T05:16:13.848Z,0.00
2019-02-22T05:17:14.023Z,0.00
2019-02-22T05:18:14.201Z,0.00
2019-02-22T05:19:14.376Z,0.00
2019-02-22T05:20:14.550Z,0.00
2019-02-22T05:21:14.726Z,0.00
2019-02-22T05:22:14.899Z,0.00
2019-02-22T05:23:15.073Z,0.00
2019-02-22T05:24:15.248Z,0.00
2019-02-22T05:25:15.422Z,0.00
2019-02-22T05:26:15.602Z,0.00
2019-02-22T05:27:15.763Z,0.00
2019-02-22T05:28:15.928Z,0.00
2019-02-22T05:29:16.127Z,0.00
2019-02-22T05:30:16.302Z,0.00
2019-02-22T05:31:16.472Z,0.00
2019-02-22T05:32:16.649Z,0.00
2019-02-22T05:33:16.823Z,0.00
2019-02-22T05:34:16.999Z,0.00
2019-02-22T05:35:17.173Z,0.00
2019-02-22T05:36:17.347Z,0.00
2019-02-22T05:37:17.534Z,0.00
2019-02-22T05:38:17.696Z,0.00
2019-02-22T05:39:19.320Z,0.00
2019-02-22T05:40:18.043Z,0.00
2019-02-22T05:41:18.223Z,0.00
2019-02-22T05:42:22.883Z,0.00
2019-02-22T05:43:18.572Z,0.00
2019-02-22T05:44:18.749Z,0.00
2019-02-22T05:45:18.915Z,0.00
2019-02-22T05:46:19.086Z,0.00
2019-02-22T05:47:19.273Z,0.00
2019-02-22T05:48:19.444Z,0.00
2019-02-22T05:49:22.125Z,0.00
2019-02-22T05:50:19.802Z,0.00
2019-02-22T05:51:19.961Z,0.00
2019-02-22T05:52:20.135Z,0.00
2019-02-22T05:53:20.309Z,0.00
2019-02-22T05:54:20.484Z,0.00
2019-02-22T05:55:20.665Z,0.00
2019-02-22T05:56:20.835Z,0.00
2019-02-22T05:57:21.010Z,0.00
2019-02-22T05:58:21.192Z,0.00
2019-02-22T05:59:21.361Z,0.00
2019-02-22T06:00:21.574Z,0.00
2019-02-22T06:01:21.710Z,0.00
2019-02-22T06:02:21.891Z,0.00
2019-02-22T06:03:22.062Z,0.00
2019-02-22T06:04:22.240Z,0.00
2019-02-22T06:05:22.416Z,0.00
2019-02-22T06:06:22.593Z,0.00
2019-02-22T06:07:22.766Z,0.00
2019-02-22T06:08:22.942Z,0.00
2019-02-22T06:09:23.122Z,0.00
2019-02-22T06:10:23.301Z,0.00
2019-02-22T06:11:23.466Z,0.00
2019-02-22T06:12:34.111Z,5.63
2019-02-22T06:13:23.818Z,5.63
2019-02-22T06:14:23.998Z,5.63
2019-02-22T06:15:24.182Z,5.63
2019-02-22T06:16:24.348Z,5.63
2019-02-22T06:17:24.523Z,5.63
2019-02-22T06:18:24.694Z,11.25
2019-02-22T06:19:24.863Z,11.25
2019-02-22T06:20:25.037Z,11.25
2019-02-22T06:21:25.211Z,11.25
2019-02-22T06:22:29.690Z,11.25
2019-02-22T06:23:25.562Z,11.25
2019-02-22T06:24:25.740Z,11.25
2019-02-22T06:25:25.914Z,11.25
2019-02-22T06:26:26.086Z,11.25
2019-02-22T06:27:26.262Z,11.25
2019-02-22T06:28:26.456Z,11.25
2019-02-22T06:29:26.610Z,11.25
2019-02-22T06:30:26.789Z,16.88
2019-02-22T06:31:26.962Z,16.88
2019-02-22T06:32:27.136Z,16.88
2019-02-22T06:33:27.339Z,16.88
2019-02-22T06:34:27.510Z,16.88
2019-02-22T06:35:27.671Z,16.88
2019-02-22T06:36:27.857Z,22.50
2019-02-22T06:37:28.025Z,22.50
2019-02-22T06:38:28.191Z,28.13
2019-02-22T06:39:28.365Z,28.13
2019-02-22T06:40:28.541Z,28.13
2019-02-22T06:41:28.719Z,28.13
2019-02-22T06:42:28.893Z,22.50
2019-02-22T06:43:29.066Z,22.50
2019-02-22T06:44:29.246Z,22.50
2019-02-22T06:45:29.426Z,22.50
2019-02-22T06:46:29.594Z,22.50
2019-02-22T06:47:29.769Z,22.50
2019-02-22T06:48:29.941Z,22.50
2019-02-22T06:49:30.121Z,28.13
2019-02-22T06:50:33.863Z,28.13
2019-02-22T06:51:30.467Z,28.13
2019-02-22T06:52:30.640Z,28.13
2019-02-22T06:53:30.817Z,28.13
2019-02-22T06:54:30.990Z,33.75
2019-02-22T06:55:31.169Z,39.38
2019-02-22T06:56:31.403Z,39.38
2019-02-22T06:57:31.512Z,45.00
2019-02-22T06:58:31.711Z,45.00
2019-02-22T06:59:31.889Z,45.00
2019-02-22T07:00:32.062Z,45.00
2019-02-22T07:01:32.243Z,45.00
2019-02-22T07:02:32.411Z,45.00
2019-02-22T07:03:32.592Z,39.38
2019-02-22T07:04:32.766Z,39.38
2019-02-22T07:05:32.946Z,45.00
2019-02-22T07:06:33.115Z,45.00
2019-02-22T07:07:33.289Z,50.63
2019-02-22T07:08:33.479Z,50.63
2019-02-22T07:09:33.640Z,56.25
2019-02-22T07:10:33.822Z,56.25
2019-02-22T07:11:34.127Z,56.25
2019-02-22T07:12:34.131Z,56.25
2019-02-22T07:13:34.305Z,56.25
2019-02-22T07:14:34.481Z,56.25
2019-02-22T07:15:34.656Z,56.25
2019-02-22T07:16:34.840Z,56.25
2019-02-22T07:17:35.009Z,56.25
2019-02-22T07:18:35.183Z,56.25
2019-02-22T07:19:35.368Z,50.63
2019-02-22T07:20:35.555Z,50.63
2019-02-22T07:21:49.108Z,50.63
2019-02-22T07:22:35.877Z,50.63
2019-02-22T07:23:36.045Z,50.63
2019-02-22T07:24:36.219Z,50.63
2019-02-22T07:25:36.440Z,50.63
2019-02-22T07:26:36.576Z,50.63
2019-02-22T07:27:36.741Z,50.63
2019-02-22T07:28:36.923Z,50.63
2019-02-22T07:29:37.085Z,50.63
2019-02-22T07:30:37.265Z,50.63
2019-02-22T07:31:37.444Z,50.63
2019-02-22T07:32:37.623Z,50.63
2019-02-22T07:33:37.806Z,56.25
2019-02-22T07:34:37.997Z,56.25
2019-02-22T07:35:38.154Z,56.25
2019-02-22T07:36:38.325Z,61.88
2019-02-22T07:37:38.512Z,61.88
2019-02-22T07:38:38.693Z,61.88
2019-02-22T07:39:38.854Z,67.50
2019-02-22T07:40:39.037Z,67.50
2019-02-22T07:41:39.214Z,67.50
2019-02-22T07:42:39.408Z,73.13
2019-02-22T07:43:39.570Z,73.13
2019-02-22T07:44:39.742Z,67.50
2019-02-22T07:45:39.906Z,67.50
2019-02-22T07:46:40.083Z,61.88
2019-02-22T07:47:40.259Z,61.88
2019-02-22T07:48:40.433Z,61.88
2019-02-22T07:49:40.610Z,61.88
2019-02-22T07:50:40.789Z,61.88
2019-02-22T07:51:41.867Z,56.25
2019-02-22T07:52:41.136Z,50.63
2019-02-22T07:53:41.308Z,56.25
2019-02-22T07:55:41.675Z,56.25
2019-02-22T07:56:41.884Z,56.25
2019-02-22T07:57:42.033Z,56.25
2019-02-22T07:58:42.206Z,56.25
2019-02-22T07:59:42.383Z,56.25
2019-02-22T08:00:42.583Z,56.25
2019-02-22T08:01:47.539Z,61.88
2019-02-22T08:02:42.936Z,61.88
2019-02-22T08:03:43.107Z,67.50
2019-02-22T08:04:43.288Z,67.50
2019-02-22T08:05:43.464Z,73.13
2019-02-22T08:06:43.650Z,78.75
2019-02-22T08:07:43.812Z,84.38
2019-02-22T08:08:43.988Z,90.00
2019-02-22T08:09:44.163Z,90.00
2019-02-22T08:10:44.351Z,84.38
2019-02-22T08:11:47.282Z,84.38
2019-02-22T08:12:44.684Z,78.75
2019-02-22T08:13:44.862Z,73.13
2019-02-22T08:14:45.046Z,73.13
2019-02-22T08:15:45.214Z,67.50
2019-02-22T08:16:45.389Z,67.50
2019-02-22T08:17:45.582Z,61.88
2019-02-22T08:18:45.744Z,61.88
2019-02-22T08:19:45.921Z,56.25
2019-02-22T08:20:46.096Z,56.25
2019-02-22T08:21:46.268Z,50.63
2019-02-22T08:22:46.443Z,50.63
2019-02-22T08:23:46.625Z,50.63
2019-02-22T08:24:47.036Z,50.63
2019-02-22T08:25:46.968Z,50.63
2019-02-22T08:26:47.146Z,45.00
2019-02-22T08:27:53.770Z,45.00
2019-02-22T08:28:47.506Z,39.38
2019-02-22T08:29:47.671Z,39.38
2019-02-22T08:30:47.849Z,33.75
2019-02-22T08:31:48.128Z,33.75
2019-02-22T08:32:48.191Z,33.75
2019-02-22T08:33:48.367Z,33.75
2019-02-22T08:34:48.555Z,33.75
2019-02-22T08:35:48.710Z,33.75
2019-02-22T08:36:48.898Z,33.75
2019-02-22T08:37:49.079Z,33.75
2019-02-22T08:38:49.239Z,39.38
2019-02-22T08:39:58.262Z,39.38
2019-02-22T08:40:49.599Z,45.00
2019-02-22T08:41:49.770Z,45.00
2019-02-22T08:42:49.947Z,50.63
2019-02-22T08:43:50.125Z,56.25
2019-02-22T08:44:50.307Z,61.88
2019-02-22T08:45:50.470Z,67.50
2019-02-22T08:46:50.651Z,73.13
2019-02-22T08:47:50.834Z,84.38
2019-02-22T08:48:50.993Z,90.00
2019-02-22T08:49:51.165Z,95.63
2019-02-22T08:50:51.343Z,101.25
2019-02-22T08:51:51.521Z,106.88
2019-02-22T08:52:51.688Z,106.88
2019-02-22T08:53:51.865Z,106.88
2019-02-22T08:54:52.055Z,112.50
2019-02-22T08:55:52.229Z,118.13
2019-02-22T08:56:52.403Z,123.75
2019-02-22T08:57:52.579Z,129.38
2019-02-22T08:58:52.753Z,129.38
2019-02-22T08:59:52.943Z,129.38
2019-02-22T09:00:53.139Z,129.38
2019-02-22T09:01:53.283Z,123.75
2019-02-22T09:02:53.470Z,123.75
2019-02-22T09:03:53.638Z,118.13
2019-02-22T09:04:53.806Z,118.13
2019-02-22T09:05:53.982Z,112.50
2019-02-22T09:06:54.164Z,101.25
2019-02-22T09:07:54.349Z,95.63
2019-02-22T09:08:54.525Z,90.00
2019-02-22T09:09:54.708Z,90.00
2019-02-22T09:11:00.380Z,84.38
2019-02-22T09:11:57.588Z,84.38
2019-02-22T09:12:55.223Z,84.38
2019-02-22T09:13:55.402Z,90.00
2019-02-22T09:14:55.575Z,90.00
2019-02-22T09:15:55.743Z,90.00
2019-02-22T09:16:55.921Z,90.00
2019-02-22T09:17:56.099Z,84.38
2019-02-22T09:18:56.271Z,84.38
2019-02-22T09:19:56.450Z,78.75
2019-02-22T09:20:56.630Z,78.75
2019-02-22T09:21:56.797Z,73.13
2019-02-22T09:22:56.975Z,67.50
2019-02-22T09:23:57.166Z,67.50
2019-02-22T09:24:57.333Z,61.88
2019-02-22T09:25:57.505Z,56.25
2019-02-22T09:26:57.679Z,50.63
2019-02-22T09:27:57.861Z,50.63
2019-02-22T09:28:58.039Z,50.63
2019-02-22T09:29:59.235Z,56.25
2019-02-22T09:30:58.394Z,56.25
2019-02-22T09:31:58.566Z,61.88
2019-02-22T09:32:58.742Z,67.50
2019-02-22T09:33:58.929Z,67.50
2019-02-22T09:34:59.092Z,67.50
2019-02-22T09:35:59.264Z,67.50
2019-02-22T09:36:59.440Z,73.13
2019-02-22T09:37:59.615Z,73.13
2019-02-22T09:38:59.793Z,78.75
2019-02-22T09:39:59.969Z,78.75
2019-02-22T09:41:00.149Z,61.88
2019-02-22T09:42:00.324Z,61.88
2019-02-22T09:43:00.682Z,61.88
2019-02-22T09:44:00.643Z,61.88
2019-02-22T09:45:00.818Z,67.50
2019-02-22T09:46:01.002Z,56.25
2019-02-22T09:47:01.165Z,50.63
2019-02-22T09:48:01.361Z,56.25
2019-02-22T09:49:01.521Z,56.25
2019-02-22T09:50:01.696Z,56.25
2019-02-22T09:51:01.878Z,50.63
2019-02-22T09:52:02.050Z,56.25
2019-02-22T09:53:02.227Z,61.88
2019-02-22T09:54:02.404Z,67.50
2019-02-22T09:55:02.588Z,67.50
2019-02-22T09:56:02.761Z,67.50
2019-02-22T09:57:02.927Z,73.13
2019-02-22T09:58:03.106Z,73.13
2019-02-22T09:59:03.286Z,73.13
2019-02-22T10:00:03.460Z,78.75
2019-02-22T10:01:03.630Z,78.75
2019-02-22T10:02:03.811Z,78.75
2019-02-22T10:03:03.987Z,84.38
2019-02-22T10:04:04.147Z,78.75
2019-02-22T10:05:04.337Z,78.75
2019-02-22T10:06:04.507Z,78.75
2019-02-22T10:07:04.692Z,78.75
2019-02-22T10:08:04.865Z,78.75
2019-02-22T10:09:05.061Z,78.75
2019-02-22T10:10:05.241Z,78.75
2019-02-22T10:11:05.397Z,78.75
2019-02-22T10:12:05.573Z,84.38
2019-02-22T10:13:05.746Z,84.38
2019-02-22T10:14:06.944Z,84.38
2019-02-22T10:15:06.093Z,84.38
2019-02-22T10:16:06.269Z,90.00
2019-02-22T10:17:06.458Z,90.00
2019-02-22T10:18:06.622Z,95.63
2019-02-22T10:19:06.825Z,101.25
2019-02-22T10:20:06.993Z,106.88
2019-02-22T10:21:07.180Z,112.50
2019-02-22T10:22:07.326Z,118.13
2019-02-22T10:23:07.534Z,123.75
2019-02-22T10:24:07.687Z,129.38
2019-02-22T10:25:07.967Z,135.00
2019-02-22T10:26:08.052Z,146.25
2019-02-22T10:27:08.279Z,157.50
2019-02-22T10:28:17.170Z,157.50
2019-02-22T10:29:08.846Z,157.50
2019-02-22T10:30:08.846Z,151.88
2019-02-22T10:31:10.912Z,151.88
2019-02-22T10:32:09.524Z,146.25
2019-02-22T10:33:10.521Z,146.25
2019-02-22T10:34:09.969Z,146.25
2019-02-22T10:35:11.830Z,140.63
2019-02-22T10:36:10.211Z,140.63
2019-02-22T10:37:10.606Z,140.63
2019-02-22T10:38:10.606Z,135.00
2019-02-22T10:39:10.500Z,135.00
2019-02-22T10:40:10.663Z,135.00
2019-02-22T10:41:10.854Z,135.00
2019-02-22T10:42:10.996Z,135.00
2019-02-22T10:43:11.228Z,135.00
2019-02-22T10:44:17.643Z,135.00
2019-02-22T10:45:11.530Z,129.38
2019-02-22T10:46:11.700Z,129.38
2019-02-22T10:47:11.907Z,129.38
2019-02-22T10:48:12.100Z,123.75
2019-02-22T10:49:12.204Z,123.75
2019-02-22T10:50:12.435Z,118.13
2019-02-22T10:51:12.555Z,118.13
2019-02-22T10:52:12.831Z,118.13
2019-02-22T10:53:12.935Z,118.13
2019-02-22T10:54:13.034Z,118.13
2019-02-22T10:55:13.295Z,118.13
2019-02-22T10:56:13.444Z,118.13
2019-02-22T10:57:13.722Z,118.13
2019-02-22T10:58:13.982Z,112.50
2019-02-22T10:59:14.003Z,112.50
2019-02-22T11:00:14.163Z,112.50
2019-02-22T11:01:14.309Z,112.50
2019-02-22T11:02:14.565Z,106.88
2019-02-22T11:03:14.645Z,106.88
2019-02-22T11:04:14.817Z,106.88
2019-02-22T11:05:15.060Z,112.50
2019-02-22T11:06:15.121Z,112.50
2019-02-22T11:07:15.372Z,112.50
2019-02-22T11:08:15.526Z,112.50
2019-02-22T11:09:15.655Z,112.50
2019-02-22T11:10:15.814Z,118.13
2019-02-22T11:11:16.063Z,118.13
2019-02-22T11:12:16.220Z,123.75
2019-02-22T11:14:16.559Z,129.38
2019-02-22T11:15:16.670Z,129.38
2019-02-22T11:16:16.865Z,135.00
2019-02-22T11:17:17.115Z,140.63
2019-02-22T11:18:17.195Z,146.25
2019-02-22T11:19:17.411Z,146.25
2019-02-22T11:20:17.516Z,151.88
2019-02-22T11:21:17.695Z,151.88
2019-02-22T11:22:17.858Z,163.13
2019-02-22T11:23:17.991Z,168.75
2019-02-22T11:24:19.925Z,168.75
2019-02-22T11:25:18.407Z,168.75
2019-02-22T11:26:18.602Z,163.13
2019-02-22T11:27:18.696Z,163.13
2019-02-22T11:28:18.928Z,157.50
2019-02-22T11:29:19.140Z,157.50
2019-02-22T11:30:19.275Z,157.50
2019-02-22T11:31:19.432Z,163.13
2019-02-22T11:32:19.693Z,157.50
2019-02-22T11:33:19.812Z,157.50
2019-02-22T11:34:20.057Z,163.13
2019-02-22T11:35:20.130Z,163.13
2019-02-22T11:36:20.323Z,163.13
2019-02-22T11:37:20.477Z,163.13
2019-02-22T11:38:20.650Z,168.75
2019-02-22T11:39:20.831Z,168.75
2019-02-22T11:40:21.081Z,174.38
2019-02-22T11:41:21.155Z,180.00
2019-02-22T11:42:21.341Z,185.63
2019-02-22T11:43:21.678Z,191.25
2019-02-22T11:44:21.777Z,191.25
2019-02-22T11:45:21.911Z,196.88
2019-02-22T11:46:22.083Z,196.88
2019-02-22T11:47:22.343Z,202.50
2019-02-22T11:48:22.425Z,202.50
2019-02-22T11:49:22.598Z,208.13
2019-02-22T11:50:22.773Z,213.75
2019-02-22T11:51:22.941Z,219.38
2019-02-22T11:52:23.135Z,225.00
2019-02-22T11:53:23.298Z,230.63
2019-02-22T11:54:23.493Z,241.88
2019-02-22T11:55:23.671Z,253.13
2019-02-22T11:56:23.838Z,270.00
2019-02-22T11:57:24.067Z,275.63
2019-02-22T11:58:24.193Z,286.88
2019-02-22T11:59:24.355Z,292.50
2019-02-22T12:00:24.529Z,298.13
2019-02-22T12:01:24.715Z,298.13
2019-02-22T12:02:24.888Z,303.75
2019-02-22T12:03:25.352Z,309.38
2019-02-22T12:04:25.243Z,315.00
2019-02-22T12:05:25.423Z,315.00
2019-02-22T12:06:25.582Z,320.63
2019-02-22T12:07:25.756Z,326.25
2019-02-22T12:08:25.931Z,326.25
2019-02-22T12:09:26.105Z,331.88
2019-02-22T12:10:26.279Z,343.13
2019-02-22T12:11:26.465Z,416.25
2019-02-22T12:12:26.636Z,343.13
2019-02-22T12:13:26.811Z,343.13
2019-02-22T12:14:27.064Z,337.50
2019-02-22T12:15:27.162Z,326.25
2019-02-22T12:16:27.339Z,315.00
2019-02-22T12:17:27.505Z,309.38
2019-02-22T12:18:27.701Z,298.13
2019-02-22T12:19:27.923Z,292.50
2019-02-22T12:20:28.093Z,286.88
2019-02-22T12:21:28.193Z,281.25
2019-02-22T12:22:28.372Z,275.63
2019-02-22T12:23:28.547Z,270.00
2019-02-22T12:24:28.722Z,270.00
2019-02-22T12:25:28.907Z,270.00
2019-02-22T12:26:29.134Z,275.63
2019-02-22T12:27:29.272Z,264.38
2019-02-22T12:28:29.516Z,264.38
2019-02-22T12:29:29.604Z,253.13
2019-02-22T12:30:29.774Z,247.50
2019-02-22T12:31:29.989Z,247.50
2019-02-22T12:32:30.187Z,241.88
2019-02-22T12:33:30.392Z,241.88
2019-02-22T12:34:30.556Z,241.88
2019-02-22T12:35:30.733Z,236.25
2019-02-22T12:36:30.932Z,236.25
2019-02-22T12:37:31.091Z,230.63
2019-02-22T12:38:31.272Z,230.63
2019-02-22T12:39:31.442Z,230.63
2019-02-22T12:40:31.629Z,230.63
2019-02-22T12:41:31.815Z,230.63
2019-02-22T12:42:31.987Z,230.63
2019-02-22T12:43:32.149Z,225.00
2019-02-22T12:44:32.350Z,219.38
2019-02-22T12:45:32.880Z,219.38
2019-02-22T12:46:33.032Z,213.75
2019-02-22T12:47:32.940Z,208.13
2019-02-22T12:48:33.048Z,202.50
2019-02-22T12:49:33.189Z,191.25
2019-02-22T12:50:33.376Z,185.63
2019-02-22T12:51:33.537Z,174.38
2019-02-22T12:52:33.727Z,168.75
2019-02-22T12:53:33.920Z,157.50
2019-02-22T12:54:34.106Z,151.88
2019-02-22T12:55:34.259Z,146.25
2019-02-22T12:57:34.804Z,146.25
2019-02-22T12:58:34.921Z,151.88
2019-02-22T12:59:35.168Z,157.50
2019-02-22T13:00:35.251Z,163.13
2019-02-22T13:01:35.434Z,168.75
2019-02-22T13:02:35.585Z,174.38
2019-02-22T13:03:35.808Z,180.00
2019-02-22T13:04:35.937Z,185.63